Webcam Flughafen St.Gallen-Altenrhein

Live-Bilder und Zeitraffer LSZR / ACH.

 

Live aus Altenrhein
LIVE
LSZR 252150Z AUTO 21002KT 1200 R10/1000U BR SCT001 01/01 Q1021
Zeitraffer heute
2020-01-25 00:14:21
LSZR 242250Z AUTO VRB02KT 2800 BR BKN005 01/00 Q1023